createdAt,value
2022-09-04T00:00:02.262Z,0.00
2022-09-04T00:01:01.480Z,0.00
2022-09-04T00:02:01.461Z,0.00
2022-09-04T00:03:01.447Z,0.00
2022-09-04T00:04:01.570Z,0.00
2022-09-04T00:05:01.553Z,0.00
2022-09-04T00:06:01.396Z,0.00
2022-09-04T00:07:01.391Z,0.00
2022-09-04T00:08:01.333Z,0.00
2022-09-04T00:09:01.319Z,0.00
2022-09-04T00:10:01.323Z,0.00
2022-09-04T00:11:02.251Z,0.00
2022-09-04T00:12:01.243Z,0.00
2022-09-04T00:13:01.247Z,0.00
2022-09-04T00:14:01.210Z,0.00
2022-09-04T00:15:01.247Z,0.00
2022-09-04T00:16:01.169Z,0.00
2022-09-04T00:17:01.230Z,0.00
2022-09-04T00:18:01.131Z,0.00
2022-09-04T00:19:01.096Z,0.00
2022-09-04T00:20:01.108Z,0.00
2022-09-04T00:21:01.066Z,0.00
2022-09-04T00:22:01.074Z,0.00
2022-09-04T00:23:01.017Z,0.00
2022-09-04T00:24:01.014Z,0.00
2022-09-04T00:25:01.001Z,0.00
2022-09-04T00:26:00.993Z,0.00
2022-09-04T00:27:00.931Z,0.00
2022-09-04T00:28:00.914Z,0.00
2022-09-04T00:29:00.922Z,0.00
2022-09-04T00:30:00.869Z,0.00
2022-09-04T00:31:00.925Z,0.00
2022-09-04T00:32:00.854Z,0.00
2022-09-04T00:33:00.844Z,0.00
2022-09-04T00:34:00.787Z,0.00
2022-09-04T00:35:00.783Z,0.00
2022-09-04T00:36:00.758Z,0.00
2022-09-04T00:37:00.753Z,0.00
2022-09-04T00:38:00.704Z,0.00
2022-09-04T00:39:00.680Z,0.00
2022-09-04T00:40:00.769Z,0.00
2022-09-04T00:41:00.691Z,0.00
2022-09-04T00:42:00.626Z,0.00
2022-09-04T00:43:00.609Z,0.00
2022-09-04T00:44:00.614Z,0.00
2022-09-04T00:45:00.556Z,0.00
2022-09-04T00:46:00.762Z,0.00
2022-09-04T00:47:00.541Z,0.00
2022-09-04T00:48:00.517Z,0.00
2022-09-04T00:49:00.470Z,0.00
2022-09-04T00:50:00.480Z,0.00
2022-09-04T00:51:00.454Z,0.00
2022-09-04T00:52:01.270Z,0.00
2022-09-04T00:53:00.392Z,0.00
2022-09-04T00:54:00.385Z,0.00
2022-09-04T00:55:00.377Z,0.00
2022-09-04T00:56:00.323Z,0.00
2022-09-04T00:57:00.315Z,0.00
2022-09-04T00:58:00.304Z,0.00
2022-09-04T00:59:00.266Z,0.00
2022-09-04T01:00:00.240Z,0.00
2022-09-04T01:01:00.484Z,0.00
2022-09-04T01:02:00.423Z,0.00
2022-09-04T01:03:00.770Z,0.00
2022-09-04T01:04:00.167Z,0.00
2022-09-04T01:05:00.143Z,0.00
2022-09-04T01:06:00.154Z,0.00
2022-09-04T01:07:00.092Z,0.00
2022-09-04T01:08:00.124Z,0.00
2022-09-04T01:09:00.081Z,0.00
2022-09-04T01:10:00.079Z,0.00
2022-09-04T01:11:00.019Z,0.00
2022-09-04T01:12:00.028Z,0.00
2022-09-04T01:12:59.978Z,0.00
2022-09-04T01:14:00.005Z,0.00
2022-09-04T01:14:59.931Z,0.00
2022-09-04T01:15:59.917Z,0.00
2022-09-04T01:16:59.919Z,0.00
2022-09-04T01:17:59.862Z,0.00
2022-09-04T01:18:59.862Z,0.00
2022-09-04T01:19:59.838Z,0.00
2022-09-04T01:20:59.840Z,0.00
2022-09-04T01:21:59.791Z,0.00
2022-09-04T01:22:59.779Z,0.00
2022-09-04T01:23:59.760Z,0.00
2022-09-04T01:25:00.292Z,0.00
2022-09-04T01:25:59.691Z,0.00
2022-09-04T01:26:59.685Z,0.00
2022-09-04T01:27:59.688Z,0.00
2022-09-04T01:28:59.623Z,0.00
2022-09-04T01:29:59.618Z,0.00
2022-09-04T01:30:59.589Z,0.00
2022-09-04T01:31:59.628Z,0.00
2022-09-04T01:32:59.543Z,0.00
2022-09-04T01:33:59.534Z,0.00
2022-09-04T01:34:59.536Z,0.00
2022-09-04T01:36:00.288Z,0.00
2022-09-04T01:36:59.461Z,0.00
2022-09-04T01:37:59.440Z,0.00
2022-09-04T01:38:59.458Z,0.00
2022-09-04T01:39:59.465Z,0.00
2022-09-04T01:40:59.403Z,0.00
2022-09-04T01:41:59.394Z,0.00
2022-09-04T01:42:59.327Z,0.00
2022-09-04T01:43:59.309Z,0.00
2022-09-04T01:44:59.302Z,0.00
2022-09-04T01:45:59.325Z,0.00
2022-09-04T01:46:59.806Z,0.00
2022-09-04T01:47:59.236Z,0.00
2022-09-04T01:48:59.223Z,0.00
2022-09-04T01:49:59.196Z,0.00
2022-09-04T01:50:59.156Z,0.00
2022-09-04T01:51:59.142Z,0.00
2022-09-04T01:52:59.147Z,0.00
2022-09-04T01:53:59.100Z,0.00
2022-09-04T01:54:59.088Z,0.00
2022-09-04T01:55:59.063Z,0.00
2022-09-04T01:56:59.071Z,0.00
2022-09-04T01:57:59.792Z,0.00
2022-09-04T01:58:59.004Z,0.00
2022-09-04T01:59:58.992Z,0.00
2022-09-04T02:00:58.994Z,0.00
2022-09-04T02:01:58.932Z,0.00
2022-09-04T02:02:58.927Z,0.00
2022-09-04T02:03:58.895Z,0.00
2022-09-04T02:04:58.867Z,0.00
2022-09-04T02:05:58.840Z,0.00
2022-09-04T02:06:58.829Z,0.00
2022-09-04T02:07:58.817Z,0.00
2022-09-04T02:08:58.785Z,0.00
2022-09-04T02:09:58.776Z,0.00
2022-09-04T02:10:58.756Z,0.00
2022-09-04T02:11:58.752Z,0.00
2022-09-04T02:12:58.695Z,0.00
2022-09-04T02:13:58.670Z,0.00
2022-09-04T02:14:58.661Z,0.00
2022-09-04T02:15:58.768Z,0.00
2022-09-04T02:16:58.606Z,0.00
2022-09-04T02:17:58.597Z,0.00
2022-09-04T02:18:58.617Z,0.00
2022-09-04T02:19:59.324Z,0.00
2022-09-04T02:20:58.540Z,0.00
2022-09-04T02:21:58.506Z,0.00
2022-09-04T02:22:58.510Z,0.00
2022-09-04T02:23:58.461Z,0.00
2022-09-04T02:24:58.447Z,0.00
2022-09-04T02:25:58.444Z,0.00
2022-09-04T02:26:58.416Z,0.00
2022-09-04T02:27:58.398Z,0.00
2022-09-04T02:28:58.363Z,0.00
2022-09-04T02:29:58.378Z,0.00
2022-09-04T02:30:59.300Z,0.00
2022-09-04T02:31:58.379Z,0.00
2022-09-04T02:32:58.288Z,0.00
2022-09-04T02:33:58.287Z,0.00
2022-09-04T02:34:58.227Z,0.00
2022-09-04T02:35:58.205Z,0.00
2022-09-04T02:36:58.223Z,0.00
2022-09-04T02:37:58.170Z,0.00
2022-09-04T02:38:58.155Z,0.00
2022-09-04T02:39:58.169Z,0.00
2022-09-04T02:40:58.125Z,0.00
2022-09-04T02:41:58.803Z,0.00
2022-09-04T02:42:58.050Z,0.00
2022-09-04T02:43:58.050Z,0.00
2022-09-04T02:44:58.009Z,0.00
2022-09-04T02:45:57.994Z,0.00
2022-09-04T02:46:58.004Z,0.00
2022-09-04T02:47:58.803Z,0.00
2022-09-04T02:48:57.927Z,0.00
2022-09-04T02:49:57.906Z,0.00
2022-09-04T02:50:57.912Z,0.00
2022-09-04T02:51:57.889Z,0.00
2022-09-04T02:52:57.900Z,0.00
2022-09-04T02:53:57.840Z,0.00
2022-09-04T02:54:57.821Z,0.00
2022-09-04T02:55:57.827Z,0.00
2022-09-04T02:56:57.757Z,0.00
2022-09-04T02:57:57.751Z,0.00
2022-09-04T02:58:57.737Z,0.00
2022-09-04T02:59:57.702Z,0.00
2022-09-04T03:00:57.738Z,4.00
2022-09-04T03:01:57.758Z,4.00
2022-09-04T03:02:57.660Z,4.00
2022-09-04T03:03:57.624Z,0.00
2022-09-04T03:04:57.604Z,0.00
2022-09-04T03:05:57.576Z,0.00
2022-09-04T03:06:57.544Z,4.00
2022-09-04T03:07:57.520Z,4.00
2022-09-04T03:08:57.503Z,4.00
2022-09-04T03:09:57.496Z,4.00
2022-09-04T03:10:57.467Z,4.00
2022-09-04T03:11:57.436Z,4.00
2022-09-04T03:12:57.430Z,4.00
2022-09-04T03:13:57.420Z,4.00
2022-09-04T03:14:57.383Z,8.00
2022-09-04T03:15:57.395Z,4.00
2022-09-04T03:16:57.357Z,8.00
2022-09-04T03:17:57.350Z,8.00
2022-09-04T03:18:57.300Z,8.00
2022-09-04T03:19:57.355Z,8.00
2022-09-04T03:20:57.272Z,8.00
2022-09-04T03:21:57.824Z,12.00
2022-09-04T03:22:57.205Z,12.00
2022-09-04T03:23:57.197Z,12.00
2022-09-04T03:24:57.159Z,12.00
2022-09-04T03:25:57.158Z,16.00
2022-09-04T03:26:57.122Z,12.00
2022-09-04T03:27:57.119Z,16.00
2022-09-04T03:28:57.080Z,16.00
2022-09-04T03:29:57.068Z,16.00
2022-09-04T03:30:57.041Z,16.00
2022-09-04T03:31:57.032Z,20.00
2022-09-04T03:32:57.821Z,20.00
2022-09-04T03:33:56.983Z,24.00
2022-09-04T03:34:56.973Z,20.00
2022-09-04T03:35:56.941Z,20.00
2022-09-04T03:36:56.960Z,24.00
2022-09-04T03:37:56.886Z,24.00
2022-09-04T03:38:56.880Z,28.00
2022-09-04T03:39:56.938Z,28.00
2022-09-04T03:40:56.849Z,28.00
2022-09-04T03:41:56.811Z,32.00
2022-09-04T03:42:56.806Z,32.00
2022-09-04T03:43:57.332Z,36.00
2022-09-04T03:44:56.737Z,40.00
2022-09-04T03:45:56.731Z,40.00
2022-09-04T03:46:56.797Z,44.00
2022-09-04T03:47:56.695Z,44.00
2022-09-04T03:48:56.653Z,44.00
2022-09-04T03:49:56.661Z,48.00
2022-09-04T03:50:56.648Z,52.00
2022-09-04T03:51:56.662Z,52.00
2022-09-04T03:52:56.576Z,56.00
2022-09-04T03:53:56.557Z,60.00
2022-09-04T03:54:56.531Z,60.00
2022-09-04T03:55:56.507Z,64.00
2022-09-04T03:56:56.499Z,68.00
2022-09-04T03:57:56.488Z,72.00
2022-09-04T03:58:56.455Z,72.00
2022-09-04T03:59:56.415Z,76.00
2022-09-04T04:00:56.469Z,80.00
2022-09-04T04:01:56.375Z,84.00
2022-09-04T04:02:56.418Z,84.00
2022-09-04T04:03:56.340Z,88.00
2022-09-04T04:04:56.325Z,88.00
2022-09-04T04:05:56.300Z,96.00
2022-09-04T04:06:56.270Z,100.00
2022-09-04T04:07:56.266Z,100.00
2022-09-04T04:08:57.175Z,104.00
2022-09-04T04:09:56.225Z,112.00
2022-09-04T04:10:56.186Z,116.00
2022-09-04T04:11:56.186Z,120.00
2022-09-04T04:12:56.143Z,124.00
2022-09-04T04:13:56.144Z,132.00
2022-09-04T04:14:56.105Z,132.00
2022-09-04T04:15:56.169Z,140.00
2022-09-04T04:16:56.837Z,140.00
2022-09-04T04:17:56.033Z,148.00
2022-09-04T04:18:56.031Z,148.00
2022-09-04T04:19:56.009Z,148.00
2022-09-04T04:20:56.043Z,152.00
2022-09-04T04:21:55.999Z,156.00
2022-09-04T04:22:55.954Z,156.00
2022-09-04T04:23:55.913Z,160.00
2022-09-04T04:24:55.913Z,164.00
2022-09-04T04:25:55.874Z,164.00
2022-09-04T04:26:55.885Z,172.00
2022-09-04T04:27:55.829Z,172.00
2022-09-04T04:28:55.802Z,176.00
2022-09-04T04:29:55.802Z,180.00
2022-09-04T04:30:55.781Z,184.00
2022-09-04T04:31:55.765Z,188.00
2022-09-04T04:32:55.720Z,188.00
2022-09-04T04:33:55.724Z,192.00
2022-09-04T04:34:55.677Z,196.00
2022-09-04T04:35:55.717Z,200.00
2022-09-04T04:36:55.643Z,208.00
2022-09-04T04:37:55.644Z,208.00
2022-09-04T04:38:55.611Z,208.00
2022-09-04T04:39:55.604Z,216.00
2022-09-04T04:40:55.565Z,216.00
2022-09-04T04:41:55.545Z,220.00
2022-09-04T04:42:55.529Z,224.00
2022-09-04T04:43:55.493Z,232.00
2022-09-04T04:44:55.473Z,236.00
2022-09-04T04:45:55.451Z,240.00
2022-09-04T04:46:55.533Z,248.00
2022-09-04T04:47:55.411Z,256.00
2022-09-04T04:48:55.416Z,256.00
2022-09-04T04:49:55.402Z,264.00
2022-09-04T04:50:55.343Z,268.00
2022-09-04T04:51:55.335Z,276.00
2022-09-04T04:52:55.320Z,280.00
2022-09-04T04:53:55.299Z,284.00
2022-09-04T04:54:55.259Z,288.00
2022-09-04T04:55:55.267Z,296.00
2022-09-04T04:56:55.241Z,300.00
2022-09-04T04:57:55.875Z,304.00
2022-09-04T04:58:55.180Z,308.00
2022-09-04T04:59:55.180Z,308.00
2022-09-04T05:00:55.144Z,312.00
2022-09-04T05:01:55.259Z,312.00
2022-09-04T05:02:55.164Z,312.00
2022-09-04T05:03:55.090Z,312.00
2022-09-04T05:04:55.096Z,312.00
2022-09-04T05:05:55.032Z,308.00
2022-09-04T05:06:55.025Z,308.00
2022-09-04T05:07:55.018Z,304.00
2022-09-04T05:08:54.999Z,300.00
2022-09-04T05:09:54.950Z,300.00
2022-09-04T05:10:54.927Z,300.00
2022-09-04T05:11:54.941Z,300.00
2022-09-04T05:12:54.940Z,300.00
2022-09-04T05:13:54.864Z,300.00
2022-09-04T05:14:54.859Z,300.00
2022-09-04T05:16:08.534Z,304.00
2022-09-04T05:16:55.949Z,308.00
2022-09-04T05:17:54.788Z,312.00
2022-09-04T05:18:54.771Z,316.00
2022-09-04T05:19:54.757Z,328.00
2022-09-04T05:20:54.721Z,336.00
2022-09-04T05:21:54.724Z,348.00
2022-09-04T05:22:55.091Z,360.00
2022-09-04T05:23:54.669Z,372.00
2022-09-04T05:24:55.953Z,392.00
2022-09-04T05:25:54.635Z,416.00
2022-09-04T05:26:54.599Z,452.00
2022-09-04T05:27:54.602Z,504.00
2022-09-04T05:28:54.552Z,560.00
2022-09-04T05:29:54.570Z,584.00
2022-09-04T05:30:54.579Z,644.00
2022-09-04T05:31:54.497Z,716.00
2022-09-04T05:32:54.490Z,692.00
2022-09-04T05:33:54.469Z,760.00
2022-09-04T05:34:54.448Z,872.00
2022-09-04T05:35:54.412Z,936.00
2022-09-04T05:36:54.490Z,1020.00
2022-09-04T05:37:54.380Z,1072.00
2022-09-04T05:38:54.376Z,1084.00
2022-09-04T05:39:54.393Z,1024.00
2022-09-04T05:40:54.332Z,1028.00
2022-09-04T05:41:54.289Z,1164.00
2022-09-04T05:42:54.282Z,1180.00
2022-09-04T05:43:54.251Z,1220.00
2022-09-04T05:44:54.243Z,1328.00
2022-09-04T05:45:54.208Z,1452.00
2022-09-04T05:46:54.214Z,1504.00
2022-09-04T05:47:54.185Z,1540.00
2022-09-04T05:48:54.167Z,1672.00
2022-09-04T05:49:54.137Z,1716.00
2022-09-04T05:50:54.104Z,1784.00
2022-09-04T05:51:54.098Z,1736.00
2022-09-04T05:52:54.080Z,1904.00
2022-09-04T05:53:57.032Z,1956.00
2022-09-04T05:54:54.027Z,1996.00
2022-09-04T05:55:54.020Z,1952.00
2022-09-04T05:56:54.009Z,1952.00
2022-09-04T05:57:53.985Z,1860.00
2022-09-04T05:58:53.954Z,1800.00
2022-09-04T05:59:53.948Z,1804.00
2022-09-04T06:00:53.927Z,1848.00
2022-09-04T06:01:54.932Z,1828.00
2022-09-04T06:02:53.899Z,1880.00
2022-09-04T06:03:53.864Z,1816.00
2022-09-04T06:04:53.845Z,2024.00
2022-09-04T06:05:53.826Z,2036.00
2022-09-04T06:06:53.795Z,2140.00
2022-09-04T06:07:53.787Z,2204.00
2022-09-04T06:08:53.784Z,2140.00
2022-09-04T06:09:54.387Z,2172.00
2022-09-04T06:10:53.722Z,2208.00
2022-09-04T06:11:53.724Z,2100.00
2022-09-04T06:12:53.681Z,2068.00
2022-09-04T06:13:56.397Z,2220.00
2022-09-04T06:14:53.648Z,2268.00
2022-09-04T06:15:53.709Z,2036.00
2022-09-04T06:16:53.633Z,2448.00
2022-09-04T06:17:53.596Z,2608.00
2022-09-04T06:18:53.575Z,2732.00
2022-09-04T06:19:53.551Z,2584.00
2022-09-04T06:20:53.570Z,2216.00
2022-09-04T06:21:53.559Z,2728.00
2022-09-04T06:22:55.708Z,2676.00
2022-09-04T06:23:53.483Z,2496.00
2022-09-04T06:24:53.504Z,1872.00
2022-09-04T06:25:54.446Z,2420.00
2022-09-04T06:26:53.429Z,2532.00
2022-09-04T06:27:53.404Z,2564.00
2022-09-04T06:28:53.417Z,2040.00
2022-09-04T06:29:53.372Z,1864.00
2022-09-04T06:30:53.365Z,1760.00
2022-09-04T06:31:53.338Z,1824.00
2022-09-04T06:32:53.318Z,2172.00
2022-09-04T06:33:53.340Z,2236.00
2022-09-04T06:34:53.274Z,2316.00
2022-09-04T06:35:53.269Z,2144.00
2022-09-04T06:36:53.256Z,2044.00
2022-09-04T06:37:53.221Z,1312.00
2022-09-04T06:38:53.202Z,1220.00
2022-09-04T06:39:53.222Z,1208.00
2022-09-04T06:40:53.892Z,1316.00
2022-09-04T06:41:53.191Z,1372.00
2022-09-04T06:42:53.124Z,1940.00
2022-09-04T06:43:54.456Z,1364.00
2022-09-04T06:44:53.133Z,1124.00
2022-09-04T06:45:53.071Z,1680.00
2022-09-04T06:46:53.129Z,2060.00
2022-09-04T06:47:53.036Z,2272.00
2022-09-04T06:48:55.910Z,2324.00
2022-09-04T06:49:53.007Z,1776.00
2022-09-04T06:50:52.980Z,2364.00
2022-09-04T06:51:52.969Z,2824.00
2022-09-04T06:52:52.948Z,3284.00
2022-09-04T06:53:52.957Z,3228.00
2022-09-04T06:54:52.903Z,3424.00
2022-09-04T06:55:52.886Z,3400.00
2022-09-04T06:56:52.874Z,3300.00
2022-09-04T06:57:52.874Z,3188.00
2022-09-04T06:58:52.846Z,3396.00
2022-09-04T06:59:52.839Z,3240.00
2022-09-04T07:00:52.812Z,2828.00
2022-09-04T07:01:53.463Z,2852.00
2022-09-04T07:02:52.848Z,3036.00
2022-09-04T07:03:52.750Z,3132.00
2022-09-04T07:04:52.751Z,3056.00
2022-09-04T07:05:52.742Z,3032.00
2022-09-04T07:06:52.701Z,1676.00
2022-09-04T07:07:52.681Z,2204.00
2022-09-04T07:08:52.665Z,1924.00
2022-09-04T07:09:52.668Z,1848.00
2022-09-04T07:10:52.624Z,1756.00
2022-09-04T07:11:52.605Z,1532.00
2022-09-04T07:12:52.589Z,1404.00
2022-09-04T07:13:52.594Z,1428.00
2022-09-04T07:14:52.570Z,1452.00
2022-09-04T07:15:52.547Z,1596.00
2022-09-04T07:16:52.517Z,2412.00
2022-09-04T07:17:52.539Z,1820.00
2022-09-04T07:18:52.546Z,1688.00
2022-09-04T07:19:52.520Z,2020.00
2022-09-04T07:20:52.466Z,1784.00
2022-09-04T07:21:52.445Z,2420.00
2022-09-04T07:22:52.453Z,1992.00
2022-09-04T07:23:52.915Z,2148.00
2022-09-04T07:24:52.387Z,1904.00
2022-09-04T07:25:52.381Z,1940.00
2022-09-04T07:26:52.367Z,2036.00
2022-09-04T07:27:52.375Z,1936.00
2022-09-04T07:28:52.312Z,2024.00
2022-09-04T07:29:52.299Z,1984.00
2022-09-04T07:30:52.305Z,2084.00
2022-09-04T07:31:52.342Z,2208.00
2022-09-04T07:32:52.315Z,2104.00
2022-09-04T07:33:52.358Z,1956.00
2022-09-04T07:34:52.252Z,1840.00
2022-09-04T07:35:52.223Z,2024.00
2022-09-04T07:36:52.228Z,2500.00
2022-09-04T07:37:52.160Z,2920.00
2022-09-04T07:38:52.153Z,2756.00
2022-09-04T07:39:52.172Z,1976.00
2022-09-04T07:40:52.105Z,1804.00
2022-09-04T07:41:52.088Z,2292.00
2022-09-04T07:42:52.073Z,1892.00
2022-09-04T07:43:54.799Z,2308.00
2022-09-04T07:44:52.933Z,2252.00
2022-09-04T07:45:52.046Z,2396.00
2022-09-04T07:46:52.004Z,2016.00
2022-09-04T07:47:52.002Z,2356.00
2022-09-04T07:48:51.961Z,2260.00
2022-09-04T07:49:51.946Z,1940.00
2022-09-04T07:50:51.942Z,2044.00
2022-09-04T07:51:51.948Z,1676.00
2022-09-04T07:52:51.917Z,2272.00
2022-09-04T07:53:51.868Z,2432.00
2022-09-04T07:54:51.863Z,1948.00
2022-09-04T07:55:51.858Z,2144.00
2022-09-04T07:56:51.843Z,2212.00
2022-09-04T07:57:51.848Z,2028.00
2022-09-04T07:58:51.869Z,1700.00
2022-09-04T07:59:51.890Z,2000.00
2022-09-04T08:00:51.785Z,2060.00
2022-09-04T08:01:51.842Z,2084.00
2022-09-04T08:02:51.788Z,2328.00
2022-09-04T08:03:54.626Z,2432.00
2022-09-04T08:04:51.750Z,2600.00
2022-09-04T08:05:51.708Z,2412.00
2022-09-04T08:06:51.670Z,2112.00
2022-09-04T08:07:51.657Z,2080.00
2022-09-04T08:08:51.636Z,1872.00
2022-09-04T08:09:51.637Z,1656.00
2022-09-04T08:10:51.638Z,1756.00
2022-09-04T08:11:51.570Z,1804.00
2022-09-04T08:12:51.570Z,1732.00
2022-09-04T08:13:51.549Z,1840.00
2022-09-04T08:14:51.517Z,1860.00
2022-09-04T08:15:51.596Z,2032.00
2022-09-04T08:16:53.266Z,2160.00
2022-09-04T08:17:51.489Z,2208.00
2022-09-04T08:18:51.488Z,2236.00
2022-09-04T08:19:51.450Z,2260.00
2022-09-04T08:20:51.431Z,2412.00
2022-09-04T08:21:51.422Z,2404.00
2022-09-04T08:22:51.961Z,2344.00
2022-09-04T08:23:51.948Z,2456.00
2022-09-04T08:24:51.372Z,2424.00
2022-09-04T08:25:51.341Z,2556.00
2022-09-04T08:26:51.351Z,2428.00
2022-09-04T08:27:51.339Z,2336.00
2022-09-04T08:28:51.312Z,2432.00
2022-09-04T08:29:51.278Z,2456.00
2022-09-04T08:30:51.443Z,2500.00
2022-09-04T08:31:51.262Z,2476.00
2022-09-04T08:32:51.225Z,2504.00
2022-09-04T08:33:51.204Z,2344.00
2022-09-04T08:34:51.204Z,2512.00
2022-09-04T08:35:51.208Z,2584.00
2022-09-04T08:36:51.970Z,2740.00
2022-09-04T08:37:51.131Z,2848.00
2022-09-04T08:38:51.123Z,2720.00
2022-09-04T08:39:51.230Z,2928.00
2022-09-04T08:40:52.269Z,2700.00
2022-09-04T08:41:51.085Z,2980.00
2022-09-04T08:42:51.045Z,3012.00
2022-09-04T08:43:51.051Z,2980.00
2022-09-04T08:44:51.048Z,3028.00
2022-09-04T08:45:51.050Z,2964.00
2022-09-04T08:46:51.001Z,2912.00
2022-09-04T08:47:50.979Z,2828.00
2022-09-04T08:48:50.987Z,2620.00
2022-09-04T08:49:51.029Z,2776.00
2022-09-04T08:50:50.935Z,2836.00
2022-09-04T08:51:50.947Z,2892.00
2022-09-04T08:52:50.953Z,3176.00
2022-09-04T08:53:50.887Z,3160.00
2022-09-04T08:54:50.865Z,3100.00
2022-09-04T08:55:50.845Z,3072.00
2022-09-04T08:56:50.836Z,2972.00
2022-09-04T08:57:50.841Z,2912.00
2022-09-04T08:58:50.832Z,2948.00
2022-09-04T08:59:50.838Z,2872.00
2022-09-04T09:00:50.762Z,3048.00
2022-09-04T09:01:50.840Z,1412.00
2022-09-04T09:02:50.774Z,3276.00
2022-09-04T09:03:50.724Z,2972.00
2022-09-04T09:04:50.696Z,2244.00
2022-09-04T09:05:50.689Z,1436.00
2022-09-04T09:06:50.697Z,2764.00
2022-09-04T09:07:50.651Z,2424.00
2022-09-04T09:08:50.682Z,1236.00
2022-09-04T09:09:50.619Z,1852.00
2022-09-04T09:10:50.618Z,1060.00
2022-09-04T09:11:50.630Z,804.00
2022-09-04T09:12:51.472Z,756.00
2022-09-04T09:13:50.619Z,716.00
2022-09-04T09:14:50.548Z,704.00
2022-09-04T09:15:50.528Z,688.00
2022-09-04T09:16:50.619Z,656.00
2022-09-04T09:17:51.482Z,640.00
2022-09-04T09:18:50.480Z,676.00
2022-09-04T09:19:50.478Z,760.00
2022-09-04T09:20:50.476Z,828.00
2022-09-04T09:21:50.454Z,876.00
2022-09-04T09:22:50.414Z,1116.00
2022-09-04T09:23:50.411Z,808.00
2022-09-04T09:24:50.410Z,724.00
2022-09-04T09:25:50.365Z,672.00
2022-09-04T09:26:50.359Z,656.00
2022-09-04T09:27:50.348Z,652.00
2022-09-04T09:28:50.330Z,644.00
2022-09-04T09:29:50.347Z,632.00
2022-09-04T09:30:50.352Z,628.00
2022-09-04T09:31:50.276Z,652.00
2022-09-04T09:32:50.282Z,688.00
2022-09-04T09:33:50.265Z,1020.00
2022-09-04T09:34:50.250Z,780.00
2022-09-04T09:35:50.984Z,872.00
2022-09-04T09:36:50.206Z,980.00
2022-09-04T09:37:50.191Z,1116.00
2022-09-04T09:38:50.182Z,1232.00
2022-09-04T09:39:50.199Z,2788.00
2022-09-04T09:40:50.129Z,1304.00
2022-09-04T09:41:50.113Z,1036.00
2022-09-04T09:42:50.096Z,948.00
2022-09-04T09:43:50.106Z,896.00
2022-09-04T09:44:50.119Z,864.00
2022-09-04T09:45:50.125Z,860.00
2022-09-04T09:46:50.044Z,892.00
2022-09-04T09:47:50.062Z,948.00
2022-09-04T09:48:50.005Z,1040.00
2022-09-04T09:49:49.991Z,1124.00
2022-09-04T09:50:49.997Z,1156.00
2022-09-04T09:51:49.973Z,1248.00
2022-09-04T09:52:49.969Z,2144.00
2022-09-04T09:53:50.040Z,2056.00
2022-09-04T09:54:49.907Z,1340.00
2022-09-04T09:55:49.879Z,1628.00
2022-09-04T09:56:53.760Z,1276.00
2022-09-04T09:57:49.855Z,1548.00
2022-09-04T09:58:49.850Z,1244.00
2022-09-04T09:59:49.848Z,1068.00
2022-09-04T10:00:49.857Z,976.00
2022-09-04T10:01:49.839Z,888.00
2022-09-04T10:02:49.797Z,824.00
2022-09-04T10:03:49.772Z,764.00
2022-09-04T10:04:49.734Z,712.00
2022-09-04T10:05:49.824Z,656.00
2022-09-04T10:06:49.728Z,608.00
2022-09-04T10:07:49.683Z,572.00
2022-09-04T10:08:49.691Z,572.00
2022-09-04T10:09:49.665Z,596.00
2022-09-04T10:10:49.695Z,636.00
2022-09-04T10:11:49.623Z,684.00
2022-09-04T10:12:49.613Z,736.00
2022-09-04T10:13:49.631Z,764.00
2022-09-04T10:14:50.499Z,768.00
2022-09-04T10:15:49.601Z,776.00
2022-09-04T10:16:49.755Z,888.00
2022-09-04T10:17:49.528Z,776.00
2022-09-04T10:18:49.526Z,772.00
2022-09-04T10:19:52.087Z,792.00
2022-09-04T10:20:49.479Z,812.00
2022-09-04T10:21:50.034Z,804.00
2022-09-04T10:22:49.465Z,780.00
2022-09-04T10:23:49.436Z,732.00
2022-09-04T10:24:49.405Z,664.00
2022-09-04T10:25:49.397Z,620.00
2022-09-04T10:26:49.436Z,600.00
2022-09-04T10:27:49.388Z,596.00
2022-09-04T10:28:49.402Z,600.00
2022-09-04T10:29:49.336Z,600.00
2022-09-04T10:30:49.380Z,600.00
2022-09-04T10:31:49.317Z,604.00
2022-09-04T10:32:49.310Z,620.00
2022-09-04T10:33:49.259Z,636.00
2022-09-04T10:34:49.249Z,664.00
2022-09-04T10:35:49.227Z,684.00
2022-09-04T10:36:49.235Z,712.00
2022-09-04T10:37:49.181Z,736.00
2022-09-04T10:38:49.176Z,752.00
2022-09-04T10:39:49.309Z,756.00
2022-09-04T10:40:51.480Z,772.00
2022-09-04T10:41:50.015Z,816.00
2022-09-04T10:42:49.105Z,856.00
2022-09-04T10:43:49.092Z,908.00
2022-09-04T10:44:49.079Z,976.00
2022-09-04T10:45:50.046Z,1176.00
2022-09-04T10:46:49.027Z,1568.00
2022-09-04T10:47:49.028Z,1592.00
2022-09-04T10:48:49.004Z,1580.00
2022-09-04T10:49:49.014Z,1416.00
2022-09-04T10:50:49.009Z,1264.00
2022-09-04T10:51:48.987Z,1060.00
2022-09-04T10:52:48.931Z,948.00
2022-09-04T10:53:48.931Z,900.00
2022-09-04T10:54:49.545Z,884.00
2022-09-04T10:55:48.882Z,880.00
2022-09-04T10:56:48.889Z,896.00
2022-09-04T10:57:48.867Z,948.00
2022-09-04T10:58:48.833Z,1572.00
2022-09-04T10:59:48.820Z,976.00
2022-09-04T11:00:48.868Z,984.00
2022-09-04T11:01:48.789Z,920.00
2022-09-04T11:02:48.786Z,924.00
2022-09-04T11:03:49.526Z,916.00
2022-09-04T11:04:48.735Z,736.00
2022-09-04T11:05:48.749Z,716.00
2022-09-04T11:06:48.705Z,712.00
2022-09-04T11:07:49.555Z,692.00
2022-09-04T11:08:48.661Z,652.00
2022-09-04T11:09:48.649Z,624.00
2022-09-04T11:10:48.652Z,780.00
2022-09-04T11:11:48.657Z,724.00
2022-09-04T11:12:48.654Z,580.00
2022-09-04T11:13:51.502Z,536.00
2022-09-04T11:14:48.589Z,516.00
2022-09-04T11:15:48.579Z,508.00
2022-09-04T11:16:48.620Z,524.00
2022-09-04T11:17:48.536Z,560.00
2022-09-04T11:18:48.517Z,592.00
2022-09-04T11:19:49.070Z,624.00
2022-09-04T11:20:48.493Z,668.00
2022-09-04T11:21:48.449Z,704.00
2022-09-04T11:22:48.433Z,808.00
2022-09-04T11:23:48.423Z,752.00
2022-09-04T11:24:48.436Z,784.00
2022-09-04T11:25:49.073Z,1004.00
2022-09-04T11:26:48.376Z,1428.00
2022-09-04T11:27:48.388Z,1640.00
2022-09-04T11:28:48.382Z,1740.00
2022-09-04T11:29:51.043Z,1604.00
2022-09-04T11:30:48.327Z,1408.00
2022-09-04T11:31:48.509Z,1200.00
2022-09-04T11:32:48.280Z,688.00
2022-09-04T11:33:48.300Z,608.00
2022-09-04T11:34:48.244Z,556.00
2022-09-04T11:35:48.246Z,776.00
2022-09-04T11:36:48.224Z,516.00
2022-09-04T11:37:48.222Z,488.00
2022-09-04T11:38:48.228Z,440.00
2022-09-04T11:39:48.184Z,412.00
2022-09-04T11:40:48.152Z,388.00
2022-09-04T11:41:48.152Z,396.00
2022-09-04T11:42:48.101Z,424.00
2022-09-04T11:43:48.104Z,456.00
2022-09-04T11:44:48.111Z,512.00
2022-09-04T11:45:48.144Z,568.00
2022-09-04T11:46:48.067Z,624.00
2022-09-04T11:47:48.546Z,656.00
2022-09-04T11:48:48.015Z,688.00
2022-09-04T11:49:47.998Z,700.00
2022-09-04T11:50:47.981Z,732.00
2022-09-04T11:51:47.960Z,788.00
2022-09-04T11:52:47.941Z,908.00
2022-09-04T11:53:47.922Z,1240.00
2022-09-04T11:54:47.933Z,864.00
2022-09-04T11:55:52.525Z,852.00
2022-09-04T11:56:48.565Z,936.00
2022-09-04T11:57:47.871Z,984.00
2022-09-04T11:58:47.877Z,1108.00
2022-09-04T11:59:47.850Z,1056.00
2022-09-04T12:00:47.844Z,1664.00
2022-09-04T12:01:48.145Z,1204.00
2022-09-04T12:02:47.787Z,1216.00
2022-09-04T12:03:47.809Z,856.00
2022-09-04T12:04:47.815Z,712.00
2022-09-04T12:05:47.801Z,684.00
2022-09-04T12:06:47.799Z,640.00
2022-09-04T12:07:47.712Z,624.00
2022-09-04T12:08:47.715Z,604.00
2022-09-04T12:09:48.547Z,596.00
2022-09-04T12:10:47.654Z,596.00
2022-09-04T12:11:47.633Z,628.00
2022-09-04T12:12:47.649Z,680.00
2022-09-04T12:13:47.594Z,772.00
2022-09-04T12:14:47.580Z,752.00
2022-09-04T12:15:47.563Z,800.00
2022-09-04T12:16:47.640Z,756.00
2022-09-04T12:17:48.064Z,688.00
2022-09-04T12:18:47.529Z,644.00
2022-09-04T12:19:47.512Z,636.00
2022-09-04T12:20:47.499Z,708.00
2022-09-04T12:21:47.501Z,780.00
2022-09-04T12:22:47.450Z,888.00
2022-09-04T12:23:47.435Z,1096.00
2022-09-04T12:24:47.420Z,916.00
2022-09-04T12:25:47.414Z,904.00
2022-09-04T12:26:51.681Z,888.00
2022-09-04T12:27:48.062Z,864.00
2022-09-04T12:28:47.418Z,844.00
2022-09-04T12:29:47.355Z,832.00
2022-09-04T12:30:47.337Z,820.00
2022-09-04T12:31:51.470Z,792.00
2022-09-04T12:32:47.295Z,752.00
2022-09-04T12:33:47.273Z,720.00